Minersville, Utah
Current Conditions -  °F | °C
As of 4:52 AM on Sunday 23 Nov 2014 (Local Time) from KMLF Reporting Station
Clear Clear  
Wind Chill: 22°   Ceiling: Unl
Heat Index: 31°   Visibility: 10mi
Dew Point: 25°   Wind: 12mph
Humidity: 79%   Direction: 330°NNW
Pressure: 30.09"   Gusts: NA
Location:  38.21°N, 112.92°W
Report Text: KMLF 231152Z AUTO 33010KT 10SM CLR M01/M04 A3009 RMK AO2 SLP180 60000 70006 T10061039 10028 21006 51020 TSNO
Loading
Personal Weather Stations






























Interactive Weather Map New forecast layout! Learn more

10-Day Weather Forecast

Advertisements
Track Severe Weather on mobile